Time;durP1;ratioP1;P1;durP2;ratioP2;P2;SDS_P1;SDS_P2;PMS_P1;PMS_P2;Temp;Humidity;BMP_temperature;BMP_pressure;BME280_temperature;BME280_humidity;BME280_pressure;Samples;Min_cycle;Max_cycle;Signal;HPM_P1;HPM_P2
2022/11/02 00:00:49;;;;;;;29.45;16.48;;;;;;;7.47;61.21;99849.13;1689735;83;21021;-81
2022/11/02 00:03:16;;;;;;;23.25;13.18;;;;;;;7.43;61.23;99837.52;1707911;83;21006;-81
2022/11/02 00:05:42;;;;;;;24.92;15.08;;;;;;;7.42;61.30;99833.75;1726351;83;21563;-80
2022/11/02 00:08:09;;;;;;;21.93;14.28;;;;;;;7.38;61.50;99828.03;1702656;84;21042;-80
2022/11/02 00:10:37;;;;;;;23.50;14.65;;;;;;;7.37;61.60;99832.27;1705495;84;21011;-78
2022/11/02 00:13:05;;;;;;;26.10;15.20;;;;;;;7.33;61.67;99828.41;1705443;84;21567;-81
2022/11/02 00:15:34;;;;;;;24.95;15.10;;;;;;;7.31;61.81;99823.80;1705521;84;21040;-81
2022/11/02 00:18:08;;;;;;;20.70;13.93;;;;;;;7.30;61.81;99814.95;1683011;84;21539;-78
2022/11/02 00:20:36;;;;;;;;;;;;;;;7.31;61.68;99806.41;1680178;85;21066;-77
2022/11/02 00:23:05;;;;;;;23.90;13.20;;;;;;;7.31;61.62;99806.41;1687847;84;20202;-71
2022/11/02 00:25:33;;;;;;;22.48;14.55;;;;;;;7.29;61.58;99810.63;1647453;84;20943;-74
2022/11/02 00:27:59;;;;;;;25.10;14.05;;;;;;;7.28;61.63;99804.19;1689912;84;20998;-73
2022/11/02 00:30:26;;;;;;;23.35;14.07;;;;;;;7.27;61.68;99802.55;1708282;83;21019;-72
2022/11/02 00:32:54;;;;;;;24.50;13.53;;;;;;;7.25;61.74;99805.44;1708945;83;21615;-72
2022/11/02 00:35:20;;;;;;;23.25;14.70;;;;;;;7.23;61.75;99805.39;1661844;83;21030;-73
2022/11/02 00:37:47;;;;;;;25.95;15.20;;;;;;;7.21;61.76;99805.60;1708250;83;21524;-76
2022/11/02 00:40:14;;;;;;;23.57;15.13;;;;;;;7.20;61.88;99799.12;1708161;83;21626;-75
2022/11/02 00:42:40;;;;;;;21.73;14.33;;;;;;;7.19;62.04;99804.21;1710849;82;21594;-74
2022/11/02 00:45:09;;;;;;;24.30;14.47;;;;;;;7.18;62.05;99805.24;1722665;83;21104;-76
2022/11/02 00:47:36;;;;;;;25.45;15.78;;;;;;;7.16;62.14;99805.45;1670321;84;21585;-75
2022/11/02 00:50:06;;;;;;;22.48;13.30;;;;;;;7.14;62.22;99805.40;1710861;83;21084;-74
2022/11/02 00:52:33;;;;;;;22.77;14.68;;;;;;;7.11;62.30;99801.30;1675440;84;21028;-72
2022/11/02 00:55:00;;;;;;;26.40;16.10;;;;;;;7.10;62.33;99802.34;1705352;83;22273;-73
2022/11/02 00:57:28;;;;;;;24.98;13.62;;;;;;;7.09;62.38;99795.37;1698543;83;21088;-71
2022/11/02 00:59:54;;;;;;;23.40;14.87;;;;;;;7.06;62.47;99795.81;1724270;83;21029;-71
2022/11/02 01:02:20;;;;;;;21.07;13.78;;;;;;;7.03;62.51;99807.48;1725007;83;21102;-68
2022/11/02 01:04:47;;;;;;;30.77;16.35;;;;;;;7.01;62.62;99807.69;1724512;82;20984;-70
2022/11/02 01:07:14;;;;;;;16.93;12.63;;;;;;;6.98;62.71;99798.80;1723057;82;20996;-68
2022/11/02 01:09:42;;;;;;;27.37;17.62;;;;;;;6.98;62.83;99804.14;1722650;83;21064;-70
2022/11/02 01:12:08;;;;;;;26.42;17.42;;;;;;;6.91;63.15;99802.05;1724330;83;21045;-70
2022/11/02 01:14:36;;;;;;;32.63;18.92;;;;;;;6.80;63.54;99797.47;1724661;83;20981;-68
2022/11/02 01:17:03;;;;;;;32.55;17.95;;;;;;;6.68;64.16;99789.36;1724184;83;21052;-68
2022/11/02 01:19:30;;;;;;;36.10;20.05;;;;;;;6.55;64.57;99794.33;1669274;84;21064;-68
2022/11/02 01:21:57;;;;;;;42.78;23.07;;;;;;;6.45;64.97;99791.34;1695343;84;20984;-69
2022/11/02 01:24:23;;;;;;;35.10;20.62;;;;;;;6.40;65.34;99795.70;1695551;84;20991;-69
2022/11/02 01:26:51;;;;;;;33.73;23.22;;;;;;;6.39;65.62;99793.55;1696315;83;21230;-75
2022/11/02 01:29:19;;;;;;;33.88;20.60;;;;;;;6.36;65.84;99795.85;1710612;83;21117;-75
2022/11/02 01:31:45;;;;;;;35.52;22.13;;;;;;;6.28;66.23;99788.95;1722439;83;20941;-77
2022/11/02 01:34:12;;;;;;;28.95;19.85;;;;;;;6.18;66.61;99789.96;1724776;83;21048;-76
2022/11/02 01:36:39;;;;;;;31.75;21.00;;;;;;;6.12;66.96;99785.48;1723033;83;21068;-76
2022/11/02 01:39:05;;;;;;;31.30;22.75;;;;;;;6.07;67.22;99789.33;1722935;83;21541;-82
2022/11/02 01:41:32;;;;;;;36.30;22.60;;;;;;;6.03;67.53;99788.14;1670977;83;21648;-72
2022/11/02 01:44:01;;;;;;;36.77;22.77;;;;;;;5.96;67.97;99781.50;1727613;83;21051;-74
2022/11/02 01:46:39;;;;;;;32.73;23.10;;;;;;;5.91;68.29;99781.85;1730139;82;20977;-69
2022/11/02 01:49:11;;;;;;;32.95;21.85;;;;;;;5.87;68.67;99784.66;1729640;83;20993;-68
2022/11/02 01:51:43;;;;;;;43.10;27.65;;;;;;;5.85;68.92;99781.38;1725788;82;21138;-71
2022/11/02 01:54:13;;;;;;;;;;;;;;;5.80;69.12;99779.36;1732882;83;22240;-72
2022/11/02 01:56:40;;;;;;;42.53;29.07;;;;;;;5.79;69.40;99772.89;1730445;82;20131;-71
2022/11/02 01:59:12;;;;;;;46.55;37.90;;;;;;;5.75;69.64;99766.36;1729587;82;21098;-72
2022/11/02 02:01:38;;;;;;;44.18;34.80;;;;;;;5.69;69.97;99762.19;1730095;82;21055;-72
2022/11/02 02:04:05;;;;;;;40.17;34.15;;;;;;;5.64;70.27;99758.52;1727339;83;21278;-78
2022/11/02 02:06:34;;;;;;;45.10;32.55;;;;;;;5.60;70.44;99755.48;1730081;82;21020;-80
2022/11/02 02:09:04;;;;;;;51.08;35.25;;;;;;;5.56;70.67;99752.92;1729440;82;21000;-75
2022/11/02 02:11:35;;;;;;;49.13;36.60;;;;;;;5.56;70.81;99757.46;1706626;82;21032;-75
2022/11/02 02:14:11;;;;;;;36.75;27.37;;;;;;;5.59;70.83;99755.69;1729830;83;21032;-74
2022/11/02 02:17:32;;;;;;;42.13;32.83;;;;;;;5.64;70.85;99757.19;1707699;83;21040;-78
2022/11/02 02:20:21;;;;;;;31.00;22.62;;;;;;;5.65;70.99;99750.31;1702040;84;21052;-72
2022/11/02 02:23:16;;;;;;;35.48;22.37;;;;;;;5.67;71.02;99753.56;1713081;83;21086;-73
2022/11/02 02:26:11;;;;;;;29.23;20.77;;;;;;;5.71;71.03;99753.94;1713222;83;20992;-72
2022/11/02 02:28:57;;;;;;;32.00;19.82;;;;;;;5.75;70.96;99756.50;1728346;82;21099;-67
2022/11/02 02:31:41;;;;;;;27.45;19.12;;;;;;;5.76;70.96;99745.28;1713654;83;21277;-70
2022/11/02 02:34:22;;;;;;;33.18;21.75;;;;;;;5.78;70.98;99744.56;1729415;82;21008;-72
2022/11/02 02:37:05;;;;;;;29.20;21.00;;;;;;;5.78;70.97;99746.72;1699519;84;21011;-71
2022/11/02 02:39:41;;;;;;;;;;;;;;;5.79;70.95;99748.87;1725581;83;21049;-72
2022/11/02 02:42:25;;;;;;;28.50;18.12;;;;;;;5.81;71.06;99746.27;1700974;83;20219;-72
2022/11/02 02:45:06;;;;;;;23.87;17.25;;;;;;;5.86;71.08;99738.44;1728731;82;21142;-72
2022/11/02 02:47:35;;;;;;;22.05;15.40;;;;;;;5.94;71.02;99740.88;1728518;82;20981;-72
2022/11/02 02:50:07;;;;;;;30.00;16.30;;;;;;;6.04;70.96;99743.84;1709560;81;21027;-77
2022/11/02 02:52:36;;;;;;;20.85;14.78;;;;;;;6.07;70.79;99747.43;1716492;83;21017;-77
2022/11/02 02:55:03;;;;;;;33.28;19.70;;;;;;;6.08;70.79;99743.73;1728830;82;21063;-79
2022/11/02 02:57:30;;;;;;;35.45;23.77;;;;;;;6.03;70.72;99738.23;1729483;83;21865;-78
2022/11/02 02:59:57;;;;;;;34.18;24.35;;;;;;;5.97;70.58;99733.77;1729479;83;21053;-72
2022/11/02 03:02:30;;;;;;;42.55;25.05;;;;;;;5.91;70.66;99731.14;1728962;82;21583;-71
2022/11/02 03:04:57;;;;;;;35.25;23.75;;;;;;;5.85;70.79;99735.45;1729849;82;21143;-79
2022/11/02 03:07:31;;;;;;;39.70;24.65;;;;;;;5.86;70.88;99737.09;1723331;82;21127;-77
2022/11/02 03:10:23;;;;;;;34.48;22.67;;;;;;;5.83;70.89;99737.55;1702593;82;21806;-78
2022/11/02 03:13:12;;;;;;;29.10;21.33;;;;;;;5.76;71.03;99733.28;1679189;84;21367;-77
2022/11/02 03:15:59;;;;;;;35.68;22.98;;;;;;;5.65;71.35;99729.48;1715563;82;20996;-70
2022/11/02 03:18:48;;;;;;;38.73;25.70;;;;;;;5.60;71.61;99735.98;1728363;83;21024;-70
2022/11/02 03:21:30;;;;;;;41.23;24.98;;;;;;;5.52;71.95;99729.56;1700813;84;21031;-70
2022/11/02 03:24:23;;;;;;;32.08;23.12;;;;;;;5.48;72.25;99727.84;1696236;84;21186;-70
2022/11/02 03:27:24;;;;;;;43.92;26.37;;;;;;;5.46;72.49;99740.59;1700405;84;22138;-71
2022/11/02 03:30:07;;;;;;;37.98;29.07;;;;;;;5.42;72.69;99740.70;1725453;83;21584;-70
2022/11/02 03:33:07;;;;;;;42.43;28.12;;;;;;;5.36;72.95;99732.77;1706134;83;21005;-70
2022/11/02 03:36:00;;;;;;;47.38;29.85;;;;;;;5.31;73.21;99733.41;1728986;82;21028;-71
2022/11/02 03:38:51;;;;;;;51.55;30.55;;;;;;;5.31;73.43;99732.59;1703936;83;22422;-68
2022/11/02 03:41:21;;;;;;;47.70;28.07;;;;;;;5.32;73.57;99728.38;1718816;83;21096;-76
2022/11/02 03:43:48;;;;;;;53.33;28.47;;;;;;;5.36;73.65;99722.91;1729460;82;20980;-72
2022/11/02 03:46:16;;;;;;;44.93;28.87;;;;;;;5.40;73.68;99722.78;1729502;82;21608;-72
2022/11/02 03:48:46;;;;;;;60.78;32.70;;;;;;;5.46;73.64;99717.11;1728521;82;21587;-72
2022/11/02 03:51:18;;;;;;;37.60;25.60;;;;;;;5.46;73.59;99711.77;1730055;82;21849;-72
2022/11/02 03:54:07;;;;;;;39.18;24.75;;;;;;;5.48;73.77;99711.02;1729590;83;21010;-73
2022/11/02 03:56:41;;;;;;;34.75;21.75;;;;;;;5.55;73.87;99709.14;1730237;82;21041;-73
2022/11/02 03:59:08;;;;;;;32.65;21.25;;;;;;;5.59;73.88;99709.00;1729350;82;22114;-74
2022/11/02 04:01:43;;;;;;;31.90;22.87;;;;;;;5.59;73.94;99714.34;1706087;83;21023;-74
2022/11/02 04:04:10;;;;;;;23.25;18.70;;;;;;;5.56;74.10;99709.45;1729689;82;21045;-73
2022/11/02 04:06:38;;;;;;;26.37;18.27;;;;;;;5.55;74.24;99710.47;1729697;82;21506;-73
2022/11/02 06:52:28;;;;;;;47.30;27.33;;;;;;;5.94;79.06;99695.50;1784870;79;26569;-70
2022/11/02 06:54:56;;;;;;;35.40;22.30;;;;;;;6.06;78.76;99695.06;1760330;81;20999;-70
2022/11/02 06:57:23;;;;;;;33.65;20.72;;;;;;;6.23;78.54;99694.50;1755620;81;21130;-69
2022/11/02 06:59:50;;;;;;;28.25;19.00;;;;;;;6.37;78.04;99694.66;1728266;80;21023;-69
2022/11/02 07:02:22;;;;;;;27.55;20.20;;;;;;;6.49;77.19;99699.02;1773384;80;21035;-70
2022/11/02 07:04:49;;;;;;;41.02;26.40;;;;;;;6.62;76.16;99693.24;1749204;80;20960;-70
2022/11/02 07:07:16;;;;;;;35.85;23.27;;;;;;;6.71;75.29;99690.05;1742568;80;21073;-70
2022/11/02 07:09:45;;;;;;;46.05;32.05;;;;;;;6.82;74.65;99688.45;1754788;81;21135;-69
2022/11/02 07:12:12;;;;;;;41.40;34.08;;;;;;;6.92;74.42;99684.72;1743640;82;21131;-71
2022/11/02 07:14:41;;;;;;;54.20;40.73;;;;;;;7.00;74.36;99681.20;1743531;82;21580;-71
2022/11/02 07:17:09;;;;;;;48.63;30.50;;;;;;;7.10;74.30;99679.87;1732544;80;21086;-70
2022/11/02 07:19:35;;;;;;;39.83;28.02;;;;;;;7.18;74.21;99680.87;1742504;81;21079;-70
2022/11/02 07:22:02;;;;;;;38.83;26.20;;;;;;;7.28;74.18;99685.15;1783132;80;21140;-70
2022/11/02 07:24:30;;;;;;;47.65;29.10;;;;;;;7.39;73.98;99686.50;1786509;80;21019;-71
2022/11/02 07:26:57;;;;;;;45.03;26.17;;;;;;;7.51;73.62;99682.52;1769993;80;21038;-72
2022/11/02 07:29:24;;;;;;;39.00;25.85;;;;;;;7.63;73.20;99680.67;1754152;81;21039;-71
2022/11/02 07:31:51;;;;;;;38.10;26.60;;;;;;;7.77;72.86;99675.94;1756029;81;21157;-70
2022/11/02 07:34:18;;;;;;;41.18;28.05;;;;;;;7.86;72.21;99681.23;1755952;81;21225;-71
2022/11/02 07:36:54;;;;;;;42.58;26.17;;;;;;;7.95;71.91;99679.84;1761510;80;20999;-72
2022/11/02 07:39:23;;;;;;;37.65;24.25;;;;;;;8.04;71.61;99679.77;1771967;80;20991;-71
2022/11/02 07:41:50;;;;;;;41.30;26.00;;;;;;;8.15;70.84;99678.14;1742585;81;21017;-72
2022/11/02 07:44:18;;;;;;;34.55;23.30;;;;;;;8.25;70.46;99677.82;1743776;80;21040;-72
2022/11/02 07:46:55;;;;;;;37.80;23.57;;;;;;;8.37;69.97;99673.83;1742585;80;21651;-71
2022/11/02 07:49:22;;;;;;;33.75;20.77;;;;;;;8.48;69.35;99668.16;1732532;80;21005;-73
2022/11/02 07:51:48;;;;;;;31.17;19.17;;;;;;;8.59;67.93;99669.98;1744264;81;20948;-71
2022/11/02 07:54:16;;;;;;;30.12;18.07;;;;;;;8.66;66.71;99671.48;1751294;81;21076;-71
2022/11/02 07:56:44;;;;;;;26.42;16.82;;;;;;;8.73;65.35;99670.00;1751237;81;20952;-71
2022/11/02 07:59:12;;;;;;;24.77;19.27;;;;;;;8.82;64.32;99669.12;1745934;81;21304;-71
2022/11/02 08:01:40;;;;;;;28.95;16.95;;;;;;;8.86;62.57;99680.47;1747634;81;20980;-70
2022/11/02 08:04:07;;;;;;;27.90;17.67;;;;;;;8.81;61.13;99673.66;1751169;81;21028;-71
2022/11/02 08:06:36;;;;;;;25.85;17.60;;;;;;;8.83;62.15;99674.22;1752581;81;21587;-71
2022/11/02 08:09:03;;;;;;;29.27;19.05;;;;;;;8.87;62.33;99674.05;1724089;81;20985;-71
2022/11/02 08:11:30;;;;;;;28.40;17.42;;;;;;;8.93;62.13;99661.53;1752901;81;21252;-73
2022/11/02 08:13:57;;;;;;;33.38;18.77;;;;;;;8.97;61.73;99661.36;1752642;81;21041;-71
2022/11/02 08:16:24;;;;;;;34.00;18.48;;;;;;;8.98;61.38;99654.40;1752529;81;21008;-70
2022/11/02 08:18:50;;;;;;;33.92;18.92;;;;;;;9.02;61.76;99663.59;1751378;81;20968;-71
2022/11/02 08:21:17;;;;;;;31.25;17.80;;;;;;;9.08;61.89;99665.84;1750053;81;20952;-71
2022/11/02 08:23:45;;;;;;;34.35;18.52;;;;;;;9.15;61.40;99659.81;1748106;80;21584;-71
2022/11/02 08:26:11;;;;;;;42.05;20.05;;;;;;;9.24;61.22;99665.59;1731828;81;21039;-72
2022/11/02 08:28:39;;;;;;;27.35;19.25;;;;;;;9.31;60.69;99663.55;1729967;81;21488;-71
2022/11/02 08:31:08;;;;;;;30.12;18.82;;;;;;;9.35;60.37;99661.48;1723629;81;21082;-73
2022/11/02 08:33:35;;;;;;;26.42;18.62;;;;;;;9.42;60.59;99658.13;1747202;81;21059;-71
2022/11/02 08:36:03;;;;;;;32.25;18.20;;;;;;;9.51;60.65;99659.88;1747658;81;21349;-72
2022/11/02 08:38:31;;;;;;;27.32;17.25;;;;;;;9.61;60.59;99658.70;1750481;81;21158;-71
2022/11/02 08:40:58;;;;;;;30.23;17.02;;;;;;;9.72;60.31;99662.38;1748765;81;21565;-71
2022/11/02 08:43:24;;;;;;;34.55;18.05;;;;;;;9.81;59.90;99659.56;1746839;81;22290;-72
2022/11/02 08:45:51;;;;;;;27.93;17.90;;;;;;;9.90;59.51;99657.56;1747463;81;21043;-69
2022/11/02 08:48:18;;;;;;;31.07;19.73;;;;;;;9.99;58.97;99660.63;1744541;81;21158;-70
2022/11/02 08:50:46;;;;;;;33.38;16.97;;;;;;;10.06;58.50;99654.57;1743321;81;21082;-72
2022/11/02 08:53:15;;;;;;;26.00;16.50;;;;;;;10.14;58.17;99655.48;1716937;81;21499;-71
2022/11/02 08:55:43;;;;;;;24.02;16.30;;;;;;;10.21;58.16;99655.34;1758118;81;21554;-72
2022/11/02 08:58:10;;;;;;;27.27;17.30;;;;;;;10.24;57.81;99656.19;1758279;81;21083;-73
2022/11/02 09:00:39;;;;;;;28.55;16.90;;;;;;;10.28;57.59;99652.75;1754407;80;20905;-72
2022/11/02 09:03:11;;;;;;;41.45;19.02;;;;;;;10.33;57.03;99642.06;1735106;81;21567;-71
2022/11/02 09:05:42;;;;;;;25.77;15.95;;;;;;;10.37;56.99;99644.53;1758238;81;21455;-73
2022/11/02 09:08:18;;;;;;;34.70;21.97;;;;;;;10.45;56.92;99652.16;1758248;81;20992;-70
2022/11/02 09:10:49;;;;;;;29.87;19.42;;;;;;;10.54;57.12;99647.17;1728568;81;21149;-72
2022/11/02 09:13:24;;;;;;;38.60;21.55;;;;;;;10.63;56.93;99648.89;1743619;80;21106;-71
2022/11/02 09:15:48;;;;;;;28.98;19.15;;;;;;;10.70;56.89;99645.45;1755208;81;21015;-71
2022/11/02 09:18:15;;;;;;;35.83;22.07;;;;;;;10.79;56.82;99638.03;1756699;81;20959;-74
2022/11/02 09:20:42;;;;;;;23.42;16.02;;;;;;;10.88;56.72;99641.92;1756113;81;21067;-73
2022/11/02 09:23:09;;;;;;;28.25;17.98;;;;;;;10.99;56.52;99636.09;1756922;80;21007;-71
2022/11/02 09:25:36;;;;;;;27.17;18.67;;;;;;;11.10;56.11;99637.02;1756290;80;21797;-72
2022/11/02 09:28:03;;;;;;;28.15;18.45;;;;;;;11.19;55.91;99636.30;1756340;80;21572;-71
2022/11/02 09:30:32;;;;;;;26.02;17.75;;;;;;;11.27;55.50;99631.00;1755259;81;22242;-73
2022/11/02 09:33:04;;;;;;;32.13;20.57;;;;;;;11.34;55.35;99628.37;1754737;80;20923;-72
2022/11/02 09:35:34;;;;;;;28.98;18.75;;;;;;;11.38;55.00;99624.62;1731854;81;21152;-70
2022/11/02 09:38:01;;;;;;;25.40;18.10;;;;;;;11.44;55.18;99630.86;1744749;80;21882;-71
2022/11/02 09:40:43;;;;;;;29.98;18.98;;;;;;;11.54;55.07;99625.03;1756561;80;21542;-69
2022/11/02 09:43:38;;;;;;;27.50;18.10;;;;;;;11.65;54.65;99626.74;1756006;80;21031;-72
2022/11/02 09:46:26;;;;;;;26.95;17.80;;;;;;;11.72;53.82;99631.89;1743994;80;21081;-71
2022/11/02 09:49:17;;;;;;;26.45;18.17;;;;;;;11.74;54.10;99625.75;1731609;81;21102;-71
2022/11/02 09:51:49;;;;;;;23.55;17.05;;;;;;;11.86;53.97;99619.63;1750209;80;22950;-70
2022/11/02 09:54:24;;;;;;;28.10;21.25;;;;;;;11.95;53.36;99619.41;1732688;81;21084;-71
2022/11/02 09:56:51;;;;;;;29.27;18.37;;;;;;;11.88;53.41;99622.88;1759804;81;20975;-71
2022/11/02 09:59:21;;;;;;;25.50;17.10;;;;;;;11.91;53.19;99621.53;1741810;81;21487;-72
2022/11/02 10:01:59;;;;;;;30.48;18.42;;;;;;;11.98;52.86;99629.69;1733210;82;21060;-72
2022/11/02 15:01:59;;;;;;;21.60;14.73;;;;;;;10.40;64.63;99676.84;1720752;79;28028;-75
2022/11/02 15:04:26;;;;;;;25.17;16.87;;;;;;;10.32;64.63;99683.97;1700720;83;21006;-77
2022/11/02 15:06:57;;;;;;;29.02;15.65;;;;;;;10.29;64.71;99687.98;1683626;83;21116;-78
2022/11/02 15:09:56;;;;;;;26.75;15.10;;;;;;;10.27;64.65;99682.02;1697314;83;21050;-75
2022/11/02 15:12:37;;;;;;;26.87;15.58;;;;;;;10.29;64.56;99689.85;1709063;83;21586;-71
2022/11/02 15:15:28;;;;;;;26.52;15.65;;;;;;;10.30;64.24;99687.45;1710887;82;20991;-80
2022/11/02 15:18:01;;;;;;;24.05;16.00;;;;;;;10.33;63.89;99695.01;1705298;83;21011;-79
2022/11/02 15:20:30;;;;;;;20.25;14.75;;;;;;;10.36;63.77;99690.50;1682709;85;21812;-78
2022/11/02 15:23:14;;;;;;;23.67;15.32;;;;;;;10.38;63.67;99695.08;1665332;83;21063;-75
2022/11/02 15:25:43;;;;;;;21.73;15.03;;;;;;;10.41;63.49;99702.64;1658776;85;21068;-75
2022/11/02 15:28:13;;;;;;;28.95;16.85;;;;;;;10.44;63.29;99704.33;1683849;83;21776;-76
2022/11/02 15:30:44;;;;;;;23.80;14.75;;;;;;;10.46;63.19;99707.56;1682590;83;21107;-78
2022/11/02 15:33:17;;;;;;;26.62;14.25;;;;;;;10.49;63.06;99707.08;1709699;83;21649;-78
2022/11/02 15:35:44;;;;;;;23.03;13.73;;;;;;;10.52;62.83;99707.62;1691950;83;21618;-74
2022/11/02 15:38:10;;;;;;;19.40;14.63;;;;;;;10.55;62.67;99706.59;1696004;83;21038;-77
2022/11/02 15:41:14;;;;;;;24.00;15.08;;;;;;;10.55;62.54;99706.59;1647247;85;21117;-78
2022/11/02 15:43:56;;;;;;;23.62;15.48;;;;;;;10.58;62.43;99706.11;1682614;85;21100;-76
2022/11/02 15:46:46;;;;;;;20.90;12.65;;;;;;;10.60;62.14;99708.00;1700442;83;21908;-75
2022/11/02 15:49:31;;;;;;;23.25;14.53;;;;;;;10.62;61.80;99719.34;1690024;83;21058;-73
2022/11/02 15:52:35;;;;;;;20.82;14.23;;;;;;;10.65;61.78;99712.64;1701067;83;21365;-77
2022/11/02 15:55:14;;;;;;;24.63;15.55;;;;;;;10.68;61.69;99718.35;1684592;83;21607;-70
2022/11/02 15:57:55;;;;;;;22.22;13.98;;;;;;;10.70;61.61;99719.42;1695999;83;21089;-73
2022/11/02 16:00:28;;;;;;;23.80;14.90;;;;;;;10.70;61.40;99721.59;1693063;83;21066;-75
2022/11/02 16:02:51;;;;;;;24.45;15.58;;;;;;;10.73;61.23;99731.05;1687876;84;21030;-73
2022/11/02 22:23:44;;;;;;;14.70;12.10;;;;;;;8.87;85.61;99852.93;1857425;76;22600;-71
2022/11/02 22:26:14;;;;;;;17.23;11.70;;;;;;;8.89;85.22;99846.79;1824319;77;20968;-69
2022/11/02 22:28:42;;;;;;;17.75;11.60;;;;;;;8.95;84.89;99847.20;1851158;77;21083;-70
2022/11/02 22:31:14;;;;;;;15.55;11.25;;;;;;;8.98;84.67;99844.85;1852867;77;21005;-69
2022/11/02 22:33:42;;;;;;;15.48;10.38;;;;;;;9.01;84.42;99847.09;1858084;77;20959;-71
2022/11/02 22:36:12;;;;;;;16.52;12.13;;;;;;;9.03;84.23;99850.33;1859715;77;20999;-69
2022/11/02 22:38:52;;;;;;;21.73;11.48;;;;;;;9.06;84.15;99854.42;1859210;77;21701;-68
2022/11/02 22:41:29;;;;;;;22.75;13.05;;;;;;;9.10;84.06;99855.58;1858388;77;21000;-71
2022/11/02 22:43:58;;;;;;;18.32;12.45;;;;;;;9.14;83.98;99860.23;1841361;77;21250;-71
2022/11/02 22:46:25;;;;;;;18.25;11.53;;;;;;;9.21;83.87;99856.61;1829308;77;20975;-72
2022/11/02 22:48:54;;;;;;;13.98;11.57;;;;;;;9.23;83.60;99858.52;1821374;78;21070;-72
2022/11/02 22:51:24;;;;;;;16.05;10.93;;;;;;;9.22;83.50;99863.06;1790533;77;21006;-72
2022/11/02 22:53:50;;;;;;;18.82;11.45;;;;;;;9.19;83.46;99862.21;1856771;77;21104;-72
2022/11/02 22:56:19;;;;;;;18.73;11.73;;;;;;;9.16;83.54;99862.66;1859433;77;21029;-77
2022/11/02 22:58:47;;;;;;;15.20;11.12;;;;;;;9.13;83.67;99863.97;1847403;76;21029;-77
2022/11/02 23:01:18;;;;;;;18.70;11.57;;;;;;;9.15;83.72;99865.08;1844503;77;21029;-76
2022/11/02 23:03:46;;;;;;;16.10;12.15;;;;;;;9.17;83.81;99865.64;1820590;77;21031;-75
2022/11/02 23:06:13;;;;;;;21.15;14.20;;;;;;;9.18;83.84;99868.09;1836201;77;21085;-77
2022/11/02 23:08:44;;;;;;;20.82;13.70;;;;;;;9.21;83.91;99867.35;1855372;77;20984;-77
2022/11/02 23:11:20;;;;;;;19.12;12.58;;;;;;;9.24;83.90;99870.89;1778687;80;20952;-79
2022/11/02 23:14:02;;;;;;;17.30;11.97;;;;;;;9.22;83.93;99868.44;1777795;80;20968;-81
2022/11/02 23:16:33;;;;;;;14.78;11.12;;;;;;;9.23;84.01;99870.59;1780179;80;21549;-78
2022/11/02 23:19:24;;;;;;;19.55;11.55;;;;;;;9.21;84.07;99861.98;1727896;81;21913;-78
2022/11/02 23:25:11;;;;;;;23.02;11.25;;;;;;;9.18;84.34;99863.25;1785746;80;20995;-73
2022/11/02 23:33:22;;;;;;;18.10;12.13;;;;;;;9.24;84.81;99861.50;1722964;83;21153;-76
2022/11/02 23:41:24;;;;;;;19.23;11.20;;;;;;;9.25;84.97;99860.45;1724141;83;21035;-72
2022/11/02 23:44:10;;;;;;;17.10;11.50;;;;;;;9.22;85.15;99867.09;1757248;81;21022;-75
2022/11/02 23:46:19;;;;;;;20.85;13.00;;;;;;;9.19;85.30;99862.21;1723032;83;21174;-75
2022/11/02 23:48:46;;;;;;;18.60;13.68;;;;;;;9.19;85.51;99858.19;1727765;80;21035;-74
2022/11/02 23:56:43;;;;;;;20.43;13.53;;;;;;;9.29;85.90;99861.08;1771505;78;21036;-75
2022/11/02 23:59:15;;;;;;;21.25;13.45;;;;;;;9.35;85.87;99871.41;1761221;78;21138;-73
